createdAt,value
2018-12-04T00:01:41.967Z,3.47
2018-12-04T00:04:10.216Z,3.20
2018-12-04T00:06:38.557Z,2.93
2018-12-04T00:09:07.420Z,2.90
2018-12-04T00:11:35.756Z,4.27
2018-12-04T00:14:04.069Z,1.87
2018-12-04T00:16:32.741Z,3.93
2018-12-04T00:19:01.222Z,2.20
2018-12-04T00:21:29.505Z,3.20
2018-12-04T00:23:57.774Z,3.20
2018-12-04T00:26:25.998Z,3.40
2018-12-04T00:28:54.289Z,2.70
2018-12-04T00:31:22.680Z,2.87
2018-12-04T00:33:50.988Z,2.67
2018-12-04T00:36:19.291Z,2.33
2018-12-04T00:38:47.529Z,2.80
2018-12-04T00:41:15.756Z,3.67
2018-12-04T00:43:43.967Z,3.03
2018-12-04T00:46:12.317Z,3.17
2018-12-04T00:48:40.571Z,2.87
2018-12-04T00:51:08.943Z,2.70
2018-12-04T00:53:37.198Z,2.93
2018-12-04T00:56:05.495Z,3.07
2018-12-04T00:58:33.826Z,2.23
2018-12-04T01:01:02.054Z,2.33
2018-12-04T01:03:30.410Z,2.70
2018-12-04T01:05:58.732Z,1.70
2018-12-04T01:08:26.957Z,1.90
2018-12-04T01:10:55.222Z,2.90
2018-12-04T01:13:23.508Z,1.50
2018-12-04T01:15:51.734Z,2.23
2018-12-04T01:18:19.959Z,2.10
2018-12-04T01:20:48.205Z,2.83
2018-12-04T01:23:16.557Z,2.60
2018-12-04T01:25:44.760Z,2.20
2018-12-04T01:28:13.083Z,2.20
2018-12-04T01:30:41.293Z,2.60
2018-12-04T01:33:09.527Z,1.70
2018-12-04T01:35:37.800Z,2.73
2018-12-04T01:38:06.113Z,1.87
2018-12-04T01:40:34.417Z,2.37
2018-12-04T01:43:02.683Z,1.70
2018-12-04T01:45:31.182Z,2.90
2018-12-04T01:47:59.675Z,1.70
2018-12-04T01:50:27.925Z,2.17
2018-12-04T01:52:56.159Z,1.53
2018-12-04T01:55:24.518Z,1.53
2018-12-04T01:57:52.802Z,2.40
2018-12-04T02:00:21.288Z,2.27
2018-12-04T02:02:49.530Z,1.60
2018-12-04T02:05:17.777Z,1.90
2018-12-04T02:07:46.006Z,1.70
2018-12-04T02:10:14.260Z,2.37
2018-12-04T02:12:42.497Z,2.17
2018-12-04T02:15:10.755Z,2.23
2018-12-04T02:17:38.985Z,2.80
2018-12-04T02:20:07.319Z,2.53
2018-12-04T02:22:35.579Z,2.23
2018-12-04T02:25:03.950Z,2.00
2018-12-04T02:27:32.266Z,1.57
2018-12-04T02:30:00.585Z,2.67
2018-12-04T02:32:29.236Z,1.70
2018-12-04T02:34:57.482Z,2.37
2018-12-04T02:37:25.782Z,2.83
2018-12-04T02:39:54.082Z,2.33
2018-12-04T02:42:25.349Z,1.60
2018-12-04T02:44:53.855Z,2.97
2018-12-04T02:47:22.103Z,2.13
2018-12-04T02:49:50.431Z,2.43
2018-12-04T02:52:18.650Z,2.03
2018-12-04T02:54:46.959Z,1.87
2018-12-04T02:57:15.219Z,2.30
2018-12-04T02:59:43.567Z,2.60
2018-12-04T03:02:11.873Z,2.00
2018-12-04T03:04:40.126Z,2.30
2018-12-04T03:07:08.458Z,1.10
2018-12-04T03:09:36.940Z,2.07
2018-12-04T03:12:05.289Z,1.57
2018-12-04T03:14:33.558Z,2.60
2018-12-04T03:17:01.795Z,1.40
2018-12-04T03:19:30.053Z,1.40
2018-12-04T03:21:58.366Z,1.13
2018-12-04T03:24:26.605Z,1.43
2018-12-04T03:26:54.828Z,1.67
2018-12-04T03:29:23.193Z,1.77
2018-12-04T03:31:51.455Z,1.33
2018-12-04T03:34:19.745Z,1.40
2018-12-04T03:36:48.058Z,1.60
2018-12-04T03:39:16.382Z,1.90
2018-12-04T03:41:44.846Z,1.37
2018-12-04T03:44:13.180Z,1.67
2018-12-04T03:46:41.422Z,1.60
2018-12-04T03:49:09.660Z,1.40
2018-12-04T03:51:38.120Z,2.10
2018-12-04T03:54:06.384Z,1.50
2018-12-04T03:56:34.772Z,2.00
2018-12-04T03:59:03.113Z,2.20
2018-12-04T04:01:31.832Z,3.30
2018-12-04T04:04:02.038Z,1.20
2018-12-04T04:06:30.376Z,2.07
2018-12-04T04:08:58.595Z,1.93
2018-12-04T04:11:27.105Z,1.60
2018-12-04T04:13:55.429Z,2.00
2018-12-04T04:16:23.833Z,1.70
2018-12-04T04:18:52.149Z,1.63
2018-12-04T04:21:20.366Z,2.20
2018-12-04T04:23:48.584Z,2.17
2018-12-04T04:26:16.903Z,2.03
2018-12-04T04:28:45.171Z,1.87
2018-12-04T04:31:13.467Z,1.30
2018-12-04T04:33:41.682Z,1.93
2018-12-04T04:36:09.939Z,1.70
2018-12-04T04:38:38.319Z,2.13
2018-12-04T04:41:06.728Z,1.40
2018-12-04T04:43:34.993Z,1.63
2018-12-04T04:46:03.241Z,1.50
2018-12-04T04:48:31.469Z,1.60
2018-12-04T04:51:00.071Z,1.50
2018-12-04T04:53:28.296Z,2.27
2018-12-04T04:55:56.536Z,2.00
2018-12-04T04:58:24.767Z,1.90
2018-12-04T05:00:53.012Z,2.13
2018-12-04T05:03:21.295Z,2.57
2018-12-04T05:05:49.536Z,2.33
2018-12-04T05:08:17.946Z,2.43
2018-12-04T05:10:46.238Z,1.97
2018-12-04T05:13:14.448Z,1.80
2018-12-04T05:15:42.698Z,2.80
2018-12-04T05:18:11.035Z,2.27
2018-12-04T05:20:39.297Z,3.33
2018-12-04T05:23:07.629Z,1.43
2018-12-04T05:25:36.003Z,2.50
2018-12-04T05:28:04.381Z,2.07
2018-12-04T05:30:32.605Z,2.13
2018-12-04T05:33:00.822Z,1.50
2018-12-04T05:35:29.065Z,2.10
2018-12-04T05:37:57.287Z,1.93
2018-12-04T05:40:25.515Z,2.60
2018-12-04T05:42:53.749Z,2.30
2018-12-04T05:45:22.085Z,1.90
2018-12-04T05:47:50.326Z,2.47
2018-12-04T05:50:18.580Z,1.60
2018-12-04T05:52:56.862Z,1.87
2018-12-04T05:55:25.101Z,3.10
2018-12-04T05:57:53.402Z,2.00
2018-12-04T06:00:21.643Z,2.03
2018-12-04T06:02:50.523Z,1.90
2018-12-04T06:05:18.751Z,3.17
2018-12-04T06:07:46.961Z,1.50
2018-12-04T06:10:15.256Z,3.10
2018-12-04T06:12:43.486Z,2.57
2018-12-04T06:15:11.926Z,2.83
2018-12-04T06:17:40.166Z,2.77
2018-12-04T06:20:08.475Z,2.10
2018-12-04T06:22:36.754Z,2.97
2018-12-04T06:25:05.988Z,2.97
2018-12-04T06:27:34.399Z,3.23
2018-12-04T06:30:02.719Z,1.90
2018-12-04T06:32:30.948Z,3.20
2018-12-04T06:34:59.155Z,1.80
2018-12-04T06:37:27.388Z,2.33
2018-12-04T06:39:55.819Z,1.93
2018-12-04T06:42:24.251Z,2.03
2018-12-04T06:44:52.559Z,2.40
2018-12-04T06:47:20.789Z,2.20
2018-12-04T06:49:49.023Z,2.60
2018-12-04T06:52:17.274Z,2.20
2018-12-04T06:54:45.495Z,2.70
2018-12-04T06:57:13.736Z,2.53
2018-12-04T06:59:41.936Z,3.77
2018-12-04T07:02:10.186Z,1.80
2018-12-04T07:04:38.522Z,3.03
2018-12-04T07:07:06.766Z,2.40
2018-12-04T07:09:35.006Z,2.87
2018-12-04T07:12:04.262Z,2.43
2018-12-04T07:14:32.558Z,2.40
2018-12-04T07:17:00.794Z,2.53
2018-12-04T07:19:29.039Z,3.10
2018-12-04T07:21:57.289Z,3.60
2018-12-04T07:24:25.539Z,2.83
2018-12-04T07:26:53.894Z,2.80
2018-12-04T07:29:22.201Z,3.53
2018-12-04T07:31:50.430Z,3.10
2018-12-04T07:34:18.671Z,3.07
2018-12-04T07:36:46.942Z,2.80
2018-12-04T07:39:15.242Z,2.43
2018-12-04T07:41:43.529Z,3.80
2018-12-04T07:44:11.786Z,3.40
2018-12-04T07:46:40.114Z,3.37
2018-12-04T07:49:08.331Z,2.83
2018-12-04T07:51:36.572Z,3.90
2018-12-04T07:54:04.886Z,2.93
2018-12-04T07:56:33.135Z,2.40
2018-12-04T07:59:01.432Z,3.10
2018-12-04T08:01:29.650Z,2.50
2018-12-04T08:03:57.885Z,3.30
2018-12-04T08:06:26.093Z,2.40
2018-12-04T08:08:54.335Z,2.73
2018-12-04T08:11:22.579Z,3.70
2018-12-04T08:13:50.908Z,3.00
2018-12-04T08:16:19.243Z,3.13
2018-12-04T08:18:47.703Z,3.30
2018-12-04T08:21:15.980Z,2.53
2018-12-04T08:23:44.230Z,3.40
2018-12-04T08:26:12.730Z,2.90
2018-12-04T08:28:41.237Z,3.17
2018-12-04T08:31:09.597Z,2.50
2018-12-04T08:33:38.055Z,2.90
2018-12-04T08:36:06.413Z,2.60
2018-12-04T08:38:34.801Z,2.60
2018-12-04T08:41:03.154Z,2.87
2018-12-04T08:43:32.432Z,4.03
2018-12-04T08:46:01.310Z,3.87
2018-12-04T08:48:29.680Z,2.40
2018-12-04T08:50:57.997Z,3.03
2018-12-04T08:53:26.462Z,2.70
2018-12-04T08:55:54.795Z,3.40
2018-12-04T08:58:23.164Z,2.60
2018-12-04T09:00:51.441Z,3.30
2018-12-04T09:03:19.841Z,2.20
2018-12-04T09:05:48.185Z,2.90
2018-12-04T09:08:16.660Z,2.57
2018-12-04T09:10:45.056Z,2.87
2018-12-04T09:13:13.474Z,2.30
2018-12-04T09:15:41.808Z,2.97
2018-12-04T09:18:10.154Z,3.10
2018-12-04T09:20:38.515Z,3.37
2018-12-04T09:23:06.932Z,2.90
2018-12-04T09:25:35.346Z,2.50
2018-12-04T09:28:03.794Z,2.83
2018-12-04T09:30:32.115Z,2.87
2018-12-04T09:33:00.553Z,2.63
2018-12-04T09:35:28.950Z,2.53
2018-12-04T09:37:57.177Z,3.10
2018-12-04T09:40:25.417Z,3.47
2018-12-04T09:42:53.709Z,3.97
2018-12-04T09:45:22.014Z,2.80
2018-12-04T09:47:50.373Z,2.90
2018-12-04T09:50:18.747Z,3.23
2018-12-04T09:52:47.050Z,2.93
2018-12-04T09:55:15.296Z,2.70
2018-12-04T09:57:43.530Z,3.20
2018-12-04T10:00:11.858Z,4.23
2018-12-04T10:02:40.187Z,3.00
2018-12-04T10:05:08.536Z,3.70
2018-12-04T10:07:36.767Z,5.30
2018-12-04T10:10:06.234Z,3.60
2018-12-04T10:12:34.476Z,3.23
2018-12-04T10:15:02.786Z,3.70
2018-12-04T10:17:31.070Z,4.17
2018-12-04T10:19:59.333Z,2.97
2018-12-04T10:22:27.658Z,3.60
2018-12-04T10:24:55.899Z,3.53
2018-12-04T10:27:24.140Z,3.50
2018-12-04T10:29:52.399Z,3.13
2018-12-04T10:32:20.751Z,3.23
2018-12-04T10:34:49.086Z,3.77
2018-12-04T10:37:17.306Z,3.47
2018-12-04T10:39:45.563Z,3.80
2018-12-04T10:42:13.786Z,4.33
2018-12-04T10:44:42.090Z,3.77
2018-12-04T10:47:10.340Z,4.13
2018-12-04T10:49:39.880Z,3.90
2018-12-04T10:52:08.562Z,3.50
2018-12-04T10:54:36.823Z,4.70
2018-12-04T10:57:09.774Z,4.70
2018-12-04T10:59:35.301Z,4.00
2018-12-04T11:02:09.092Z,3.60
2018-12-04T11:04:37.319Z,3.90
2018-12-04T11:07:05.620Z,3.57
2018-12-04T11:09:33.842Z,5.53
2018-12-04T11:12:02.182Z,3.20
2018-12-04T11:14:30.517Z,3.40
2018-12-04T11:16:58.883Z,3.10
2018-12-04T11:19:27.229Z,2.73
2018-12-04T11:21:55.543Z,2.70
2018-12-04T11:24:23.839Z,4.10
2018-12-04T11:26:52.169Z,3.43
2018-12-04T11:29:20.473Z,2.73
2018-12-04T11:31:48.691Z,2.53
2018-12-04T11:34:16.922Z,3.40
2018-12-04T11:36:45.163Z,2.70
2018-12-04T11:39:13.383Z,2.90
2018-12-04T11:41:41.689Z,2.83
2018-12-04T11:44:09.990Z,3.00
2018-12-04T11:46:38.229Z,3.37
2018-12-04T11:49:06.459Z,2.03
2018-12-04T11:51:35.486Z,3.50
2018-12-04T11:54:04.007Z,2.30
2018-12-04T11:56:32.326Z,2.30
2018-12-04T11:59:02.250Z,2.60
2018-12-04T12:01:31.571Z,3.30
2018-12-04T12:03:59.811Z,2.03
2018-12-04T12:06:28.077Z,2.50
2018-12-04T12:08:56.382Z,2.77
2018-12-04T12:11:25.752Z,1.73
2018-12-04T12:13:54.006Z,1.80
2018-12-04T12:16:22.310Z,2.00
2018-12-04T12:18:50.618Z,1.80
2018-12-04T12:21:18.930Z,2.17
2018-12-04T12:23:47.378Z,2.30
2018-12-04T12:26:15.760Z,1.70
2018-12-04T12:28:44.103Z,2.07
2018-12-04T12:31:12.474Z,1.63
2018-12-04T12:33:40.882Z,2.97
2018-12-04T12:36:09.354Z,2.10
2018-12-04T12:38:37.990Z,2.50
2018-12-04T12:41:06.349Z,2.07
2018-12-04T12:43:35.382Z,3.70
2018-12-04T12:46:03.816Z,2.30
2018-12-04T12:48:32.483Z,1.90
2018-12-04T12:51:00.832Z,3.00
2018-12-04T12:53:29.155Z,2.70
2018-12-04T12:55:57.432Z,2.40
2018-12-04T12:58:25.765Z,3.00
2018-12-04T13:00:54.081Z,2.30
2018-12-04T13:03:22.512Z,2.13
2018-12-04T13:05:50.887Z,2.67
2018-12-04T13:08:19.276Z,3.00
2018-12-04T13:10:47.546Z,2.97
2018-12-04T13:13:15.836Z,2.97
2018-12-04T13:15:45.022Z,2.90
2018-12-04T13:18:13.738Z,2.70
2018-12-04T13:20:42.087Z,2.60
2018-12-04T13:23:10.583Z,3.30
2018-12-04T13:25:39.016Z,3.03
2018-12-04T13:28:07.332Z,2.60
2018-12-04T13:30:35.716Z,2.53
2018-12-04T13:33:04.066Z,2.93
2018-12-04T13:35:32.345Z,3.17
2018-12-04T13:38:00.707Z,2.77
2018-12-04T13:40:29.059Z,2.53
2018-12-04T13:42:57.340Z,2.90
2018-12-04T13:45:25.637Z,2.27
2018-12-04T13:47:54.030Z,2.40
2018-12-04T13:50:22.365Z,2.37
2018-12-04T13:52:50.890Z,3.23
2018-12-04T13:55:19.236Z,2.53
2018-12-04T13:57:50.694Z,2.87
2018-12-04T14:00:18.060Z,2.10
2018-12-04T14:02:46.519Z,2.20
2018-12-04T14:05:14.991Z,2.13
2018-12-04T14:07:43.427Z,2.90
2018-12-04T14:10:11.984Z,2.30
2018-12-04T14:12:40.326Z,1.97
2018-12-04T14:15:09.448Z,2.03
2018-12-04T14:17:37.878Z,2.20
2018-12-04T14:20:08.147Z,2.33
2018-12-04T14:22:38.047Z,2.23
2018-12-04T14:25:06.663Z,2.23
2018-12-04T14:27:35.056Z,3.10
2018-12-04T14:30:04.432Z,2.33
2018-12-04T14:32:32.831Z,2.10
2018-12-04T14:35:01.376Z,1.80
2018-12-04T14:37:29.757Z,2.40
2018-12-04T14:39:57.983Z,2.43
2018-12-04T14:42:26.266Z,1.97
2018-12-04T14:44:54.635Z,2.33
2018-12-04T14:47:23.026Z,1.93
2018-12-04T14:49:51.252Z,2.10
2018-12-04T14:52:19.632Z,1.73
2018-12-04T14:54:48.826Z,2.17
2018-12-04T14:57:17.121Z,2.27
2018-12-04T14:59:45.356Z,2.77
2018-12-04T15:02:13.660Z,2.20
2018-12-04T15:04:41.880Z,2.43
2018-12-04T15:07:10.154Z,2.00
2018-12-04T15:09:38.606Z,2.70
2018-12-04T15:12:06.974Z,1.83
2018-12-04T15:14:35.203Z,2.20
2018-12-04T15:17:03.450Z,2.10
2018-12-04T15:19:31.703Z,2.17
2018-12-04T15:22:00.091Z,1.63
2018-12-04T15:24:28.299Z,2.17
2018-12-04T15:26:56.619Z,1.50
2018-12-04T15:29:24.863Z,2.03
2018-12-04T15:31:53.201Z,2.27
2018-12-04T15:34:21.693Z,2.10
2018-12-04T15:36:56.242Z,2.07
2018-12-04T15:39:20.295Z,2.33
2018-12-04T15:41:48.611Z,2.30
2018-12-04T15:44:16.947Z,2.23
2018-12-04T15:46:45.239Z,2.60
2018-12-04T15:49:13.777Z,2.07
2018-12-04T15:51:42.100Z,2.20
2018-12-04T15:54:10.476Z,1.87
2018-12-04T15:56:39.154Z,2.80
2018-12-04T15:59:07.453Z,2.10
2018-12-04T16:01:35.794Z,3.07
2018-12-04T16:04:04.277Z,2.23
2018-12-04T16:06:32.603Z,2.33
2018-12-04T16:09:00.898Z,2.73
2018-12-04T16:11:29.387Z,2.40
2018-12-04T16:13:57.708Z,2.77
2018-12-04T16:16:26.006Z,2.80
2018-12-04T16:18:54.455Z,2.47
2018-12-04T16:21:22.815Z,3.93
2018-12-04T16:23:51.118Z,2.60
2018-12-04T16:26:19.444Z,2.60
2018-12-04T16:28:47.682Z,2.80
2018-12-04T16:31:15.952Z,2.80
2018-12-04T16:33:44.368Z,2.80
2018-12-04T16:36:12.610Z,2.50
2018-12-04T16:38:40.859Z,3.37
2018-12-04T16:41:09.164Z,2.47
2018-12-04T16:43:37.511Z,2.70
2018-12-04T16:46:05.758Z,2.60
2018-12-04T16:48:34.012Z,3.00
2018-12-04T16:51:02.260Z,3.43
2018-12-04T16:53:30.594Z,4.30
2018-12-04T16:55:58.858Z,2.93
2018-12-04T16:58:27.255Z,2.73
2018-12-04T17:00:55.615Z,3.03
2018-12-04T17:03:23.975Z,2.60
2018-12-04T17:05:52.202Z,3.30
2018-12-04T17:08:20.467Z,3.03
2018-12-04T17:10:48.733Z,2.80
2018-12-04T17:13:16.959Z,3.03
2018-12-04T17:15:45.211Z,3.13
2018-12-04T17:18:13.647Z,2.63
2018-12-04T17:20:41.886Z,3.00
2018-12-04T17:23:10.132Z,2.90
2018-12-04T17:25:52.917Z,2.43
2018-12-04T17:28:21.151Z,2.37
2018-12-04T17:30:49.379Z,3.13
2018-12-04T17:33:17.738Z,4.37
2018-12-04T17:35:46.067Z,3.23
2018-12-04T17:38:14.429Z,3.77
2018-12-04T17:40:42.678Z,3.83
2018-12-04T17:43:11.004Z,3.93
2018-12-04T17:45:39.287Z,4.80
2018-12-04T17:48:07.559Z,3.53
2018-12-04T17:50:35.807Z,2.57
2018-12-04T17:53:04.051Z,3.30
2018-12-04T17:55:32.527Z,3.50
2018-12-04T17:58:00.884Z,3.37
2018-12-04T18:00:29.135Z,3.10
2018-12-04T18:02:57.448Z,2.73
2018-12-04T18:05:25.796Z,3.13
2018-12-04T18:07:54.030Z,2.97
2018-12-04T18:10:22.393Z,3.30
2018-12-04T18:12:50.673Z,3.50
2018-12-04T18:15:18.911Z,3.13
2018-12-04T18:17:47.822Z,3.70
2018-12-04T18:20:16.147Z,2.80
2018-12-04T18:22:44.469Z,3.43
2018-12-04T18:25:12.800Z,3.17
2018-12-04T18:27:41.165Z,3.70
2018-12-04T18:30:09.559Z,3.17
2018-12-04T18:32:37.865Z,3.00
2018-12-04T18:35:06.780Z,3.40
2018-12-04T18:37:35.051Z,3.77
2018-12-04T18:40:03.901Z,2.87
2018-12-04T18:42:32.176Z,3.90
2018-12-04T18:45:00.705Z,3.00
2018-12-04T18:47:29.066Z,3.10
2018-12-04T18:49:57.303Z,3.27
2018-12-04T18:52:25.936Z,2.87
2018-12-04T18:54:54.589Z,3.70
2018-12-04T18:57:22.911Z,4.10
2018-12-04T18:59:51.175Z,3.70
2018-12-04T19:02:19.434Z,4.10
2018-12-04T19:04:47.742Z,4.50
2018-12-04T19:07:15.977Z,5.47
2018-12-04T19:09:44.355Z,5.33
2018-12-04T19:12:12.711Z,4.30
2018-12-04T19:14:40.973Z,5.10
2018-12-04T19:17:09.327Z,5.27
2018-12-04T19:19:37.675Z,5.50
2018-12-04T19:22:06.024Z,5.20
2018-12-04T19:24:34.374Z,5.63
2018-12-04T19:27:02.633Z,5.67
2018-12-04T19:29:30.991Z,5.47
2018-12-04T19:31:59.723Z,5.00
2018-12-04T19:34:28.099Z,5.83
2018-12-04T19:36:56.876Z,7.47
2018-12-04T19:39:25.215Z,6.43
2018-12-04T19:41:53.881Z,7.62
2018-12-04T19:44:22.127Z,7.57
2018-12-04T19:46:50.399Z,7.17
2018-12-04T19:49:18.659Z,7.60
2018-12-04T19:51:46.943Z,6.43
2018-12-04T19:54:18.177Z,7.50
2018-12-04T19:56:46.466Z,6.90
2018-12-04T19:59:14.810Z,6.80
2018-12-04T20:01:43.158Z,7.50
2018-12-04T20:04:11.400Z,7.53
2018-12-04T20:06:39.639Z,6.63
2018-12-04T20:09:08.888Z,7.00
2018-12-04T20:11:37.158Z,6.90
2018-12-04T20:14:05.648Z,6.67
2018-12-04T20:16:33.996Z,7.30
2018-12-04T20:19:02.249Z,7.67
2018-12-04T20:21:30.567Z,5.80
2018-12-04T20:23:58.874Z,6.73
2018-12-04T20:26:27.100Z,6.57
2018-12-04T20:28:56.026Z,6.47
2018-12-04T20:31:24.251Z,7.07
2018-12-04T20:33:52.611Z,7.33
2018-12-04T20:36:20.882Z,7.47
2018-12-04T20:38:49.335Z,6.47
2018-12-04T20:41:17.558Z,7.40
2018-12-04T20:43:45.784Z,6.83
2018-12-04T20:46:14.064Z,6.37
2018-12-04T20:48:42.278Z,8.00
2018-12-04T20:51:11.337Z,7.33
2018-12-04T20:53:39.569Z,7.93
2018-12-04T20:56:08.184Z,6.40
2018-12-04T20:58:36.413Z,6.30
2018-12-04T21:01:04.910Z,5.83
2018-12-04T21:03:47.785Z,6.20
2018-12-04T21:06:16.014Z,6.40
2018-12-04T21:08:44.359Z,5.97
2018-12-04T21:11:12.625Z,6.13
2018-12-04T21:13:40.895Z,6.57
2018-12-04T21:16:09.114Z,4.90
2018-12-04T21:18:37.340Z,5.30
2018-12-04T21:21:05.734Z,5.13
2018-12-04T21:23:33.970Z,6.00
2018-12-04T21:26:02.189Z,5.80
2018-12-04T21:28:30.430Z,5.37
2018-12-04T21:33:10.588Z,5.37
2018-12-04T21:35:44.406Z,6.30
2018-12-04T21:38:18.100Z,4.80
2018-12-04T21:40:54.659Z,5.60
2018-12-04T21:43:28.912Z,5.50
2018-12-04T21:46:02.619Z,6.03
2018-12-04T21:48:31.020Z,6.13
2018-12-04T21:50:59.237Z,5.50
2018-12-04T21:53:27.491Z,5.70
2018-12-04T21:55:55.832Z,5.40
2018-12-04T21:58:24.207Z,6.00
2018-12-04T22:00:52.528Z,5.03
2018-12-04T22:03:20.743Z,5.10
2018-12-04T22:05:48.986Z,5.60
2018-12-04T22:08:17.308Z,5.10
2018-12-04T22:10:45.628Z,5.40
2018-12-04T22:13:13.855Z,5.60
2018-12-04T22:15:42.086Z,7.00
2018-12-04T22:18:11.820Z,5.80
2018-12-04T22:20:40.445Z,6.00
2018-12-04T22:23:08.674Z,5.47
2018-12-04T22:25:37.099Z,5.93
2018-12-04T22:28:05.370Z,6.07
2018-12-04T22:30:33.678Z,6.37
2018-12-04T22:33:01.916Z,5.23
2018-12-04T22:35:30.270Z,5.60
2018-12-04T22:37:58.487Z,5.33
2018-12-04T22:40:26.714Z,5.50
2018-12-04T22:42:54.957Z,5.57
2018-12-04T22:45:25.612Z,4.90
2018-12-04T22:47:55.031Z,5.10
2018-12-04T22:50:23.392Z,5.13
2018-12-04T22:52:51.814Z,5.20
2018-12-04T22:55:20.038Z,5.00
2018-12-04T22:57:48.241Z,5.47
2018-12-04T23:00:31.922Z,5.33
2018-12-04T23:03:00.246Z,5.40
2018-12-04T23:05:28.647Z,6.40
2018-12-04T23:07:56.862Z,5.57
2018-12-04T23:10:25.262Z,5.17
2018-12-04T23:12:53.553Z,5.73
2018-12-04T23:15:21.903Z,5.60
2018-12-04T23:17:50.415Z,6.90
2018-12-04T23:20:18.634Z,5.47
2018-12-04T23:22:47.571Z,5.30
2018-12-04T23:25:15.844Z,5.93
2018-12-04T23:27:44.066Z,5.90
2018-12-04T23:30:12.485Z,5.40
2018-12-04T23:32:40.686Z,6.23
2018-12-04T23:35:09.093Z,5.20
2018-12-04T23:37:37.706Z,5.63
2018-12-04T23:40:06.151Z,6.13
2018-12-04T23:42:34.551Z,6.63
2018-12-04T23:45:02.990Z,5.57
2018-12-04T23:47:31.451Z,6.50
2018-12-04T23:49:59.687Z,6.13
2018-12-04T23:52:28.005Z,6.53
2018-12-04T23:54:56.235Z,5.90
2018-12-04T23:57:24.467Z,5.77
2018-12-04T23:59:52.679Z,6.13
